createdAt,value
2023-03-05T00:04:14.463Z,10.43
2023-03-05T00:09:17.913Z,12.53
2023-03-05T00:14:21.011Z,14.77
2023-03-05T00:19:24.095Z,13.37
2023-03-05T00:24:27.114Z,15.97
2023-03-05T00:29:31.807Z,13.23
2023-03-05T00:34:36.350Z,16.50
2023-03-05T00:39:39.344Z,17.27
2023-03-05T00:44:42.329Z,14.30
2023-03-05T00:49:45.437Z,15.93
2023-03-05T00:54:48.591Z,15.73
2023-03-05T00:59:51.533Z,15.63
2023-03-05T01:04:54.549Z,16.47
2023-03-05T01:09:57.556Z,13.53
2023-03-05T01:15:01.211Z,14.87
2023-03-05T01:20:05.802Z,15.57
2023-03-05T01:25:09.717Z,14.07
2023-03-05T01:30:15.666Z,14.03
2023-03-05T01:35:22.699Z,15.27
2023-03-05T01:40:29.131Z,13.70
2023-03-05T01:45:35.418Z,16.47
2023-03-05T01:50:38.694Z,12.43
2023-03-05T01:55:41.780Z,17.63
2023-03-05T02:00:48.587Z,18.60
2023-03-05T02:05:51.731Z,13.37
2023-03-05T02:10:57.855Z,17.70
2023-03-05T02:16:03.779Z,15.67
2023-03-05T02:21:08.645Z,14.50
2023-03-05T02:26:11.744Z,18.17
2023-03-05T02:31:21.911Z,19.13
2023-03-05T02:36:25.286Z,15.73
2023-03-05T02:41:28.750Z,11.63
2023-03-05T02:46:31.846Z,12.90
2023-03-05T02:51:35.117Z,14.03
2023-03-05T02:56:39.626Z,13.07
2023-03-05T03:01:42.630Z,11.30
2023-03-05T03:06:45.607Z,14.60
2023-03-05T03:11:49.506Z,17.07
2023-03-05T03:16:53.289Z,12.43
2023-03-05T03:21:56.200Z,16.87
2023-03-05T03:26:59.316Z,13.97
2023-03-05T03:32:05.516Z,14.37
2023-03-05T03:37:09.035Z,14.97
2023-03-05T03:42:12.098Z,15.80
2023-03-05T03:47:15.457Z,10.63
2023-03-05T03:52:18.149Z,10.17
2023-03-05T03:57:21.466Z,14.23
2023-03-05T04:02:24.332Z,13.27
2023-03-05T04:07:28.259Z,17.00
2023-03-05T04:12:31.572Z,13.13
2023-03-05T04:17:34.670Z,14.60
2023-03-05T04:22:38.193Z,20.30
2023-03-05T04:27:41.312Z,13.93
2023-03-05T04:32:44.377Z,13.33
2023-03-05T04:37:47.401Z,13.63
2023-03-05T04:42:50.351Z,18.83
2023-03-05T04:47:53.856Z,12.43
2023-03-05T04:52:56.615Z,17.47
2023-03-05T04:57:59.629Z,13.70
2023-03-05T05:03:02.906Z,15.33
2023-03-05T05:08:06.224Z,11.30
2023-03-05T05:13:09.187Z,12.27
2023-03-05T05:18:12.457Z,12.83
2023-03-05T05:23:16.509Z,10.70
2023-03-05T05:28:19.477Z,15.23
2023-03-05T05:33:23.438Z,12.93
2023-03-05T05:38:26.579Z,11.23
2023-03-05T05:43:29.668Z,10.03
2023-03-05T05:48:35.810Z,10.63
2023-03-05T05:53:40.613Z,13.20
2023-03-05T05:58:45.172Z,18.07
2023-03-05T06:03:48.693Z,15.60
2023-03-05T06:08:53.183Z,15.97
2023-03-05T06:13:56.204Z,15.53
2023-03-05T06:19:04.285Z,15.90
2023-03-05T06:24:07.833Z,16.33
2023-03-05T06:29:11.051Z,22.20
2023-03-05T06:34:14.107Z,19.90
2023-03-05T06:39:17.328Z,16.93
2023-03-05T06:44:20.269Z,18.90
2023-03-05T06:49:23.005Z,17.97
2023-03-05T06:54:26.096Z,16.20
2023-03-05T06:59:29.127Z,15.23
2023-03-05T07:04:32.181Z,18.47
2023-03-05T07:09:35.139Z,19.13
2023-03-05T07:14:39.417Z,17.67
2023-03-05T07:19:44.035Z,21.67
2023-03-05T07:24:47.428Z,17.87
2023-03-05T07:29:50.415Z,15.90
2023-03-05T07:34:53.577Z,16.43
2023-03-05T07:39:56.519Z,18.87
2023-03-05T07:44:59.611Z,16.97
2023-03-05T07:50:04.329Z,15.47
2023-03-05T07:55:07.803Z,17.13
2023-03-05T08:00:11.674Z,15.20
2023-03-05T08:05:15.170Z,18.33
2023-03-05T08:10:18.223Z,15.97
2023-03-05T08:15:21.241Z,19.73
2023-03-05T08:20:24.780Z,18.30
2023-03-05T08:25:28.350Z,18.77
2023-03-05T08:30:31.653Z,14.57
2023-03-05T08:35:34.731Z,19.90
2023-03-05T08:40:38.265Z,17.93
2023-03-05T08:45:41.315Z,17.20
2023-03-05T08:50:44.250Z,18.90
2023-03-05T08:55:58.308Z,31.40
2023-03-05T09:01:05.248Z,13.97
2023-03-05T09:06:12.366Z,17.87
2023-03-05T09:11:15.665Z,15.80
2023-03-05T09:16:19.898Z,21.07
2023-03-05T09:21:24.114Z,15.93
2023-03-05T09:26:27.644Z,30.10
2023-03-05T09:31:30.707Z,17.60
2023-03-05T09:36:34.242Z,16.80
2023-03-05T09:42:10.268Z,16.80
2023-03-05T09:47:27.242Z,15.87
2023-03-05T09:52:56.029Z,12.70
2023-03-05T09:58:07.815Z,17.10
2023-03-05T10:03:51.084Z,17.37
2023-03-05T10:09:21.065Z,21.60
2023-03-05T10:14:38.406Z,35.93
2023-03-05T10:20:46.160Z,13.13
2023-03-05T10:26:01.060Z,14.17
2023-03-05T10:31:25.331Z,10.07
2023-03-05T10:36:28.503Z,12.67
2023-03-05T10:41:53.251Z,12.37
2023-03-05T10:47:00.106Z,11.43
2023-03-05T10:52:07.561Z,12.63
2023-03-05T10:57:38.369Z,11.83
2023-03-05T11:03:06.869Z,13.77
2023-03-05T11:08:29.514Z,12.83
2023-03-05T11:13:33.899Z,13.00
2023-03-05T11:18:37.856Z,15.43
2023-03-05T11:23:41.353Z,13.07
2023-03-05T11:28:54.842Z,13.80
2023-03-05T11:34:21.568Z,18.67
2023-03-05T11:39:26.183Z,21.50
2023-03-05T11:44:42.995Z,15.87
2023-03-05T11:49:50.709Z,13.63
2023-03-05T11:55:15.980Z,15.07
2023-03-05T12:00:27.131Z,17.93
2023-03-05T12:05:31.499Z,14.48
2023-03-05T12:10:35.029Z,14.97
2023-03-05T12:16:01.662Z,13.63
2023-03-05T12:21:26.125Z,15.77
2023-03-05T12:26:54.421Z,14.30
2023-03-05T12:31:58.977Z,12.67
2023-03-05T12:37:01.907Z,12.93
2023-03-05T12:42:30.739Z,10.13
2023-03-05T12:47:33.683Z,11.50
2023-03-05T12:52:39.842Z,10.60
2023-03-05T12:57:45.867Z,10.97
2023-03-05T13:02:58.063Z,9.83
2023-03-05T13:08:26.793Z,8.07
2023-03-05T13:13:36.057Z,10.63
2023-03-05T13:18:45.660Z,10.53
2023-03-05T13:23:58.972Z,12.70
2023-03-05T13:29:12.477Z,9.97
2023-03-05T13:34:40.966Z,8.60
2023-03-05T13:45:16.859Z,9.80
2023-03-05T13:50:39.117Z,8.10
2023-03-05T13:55:42.307Z,6.47
2023-03-05T14:00:45.232Z,8.40
2023-03-05T14:05:50.066Z,8.53
2023-03-05T14:10:59.211Z,8.57
2023-03-05T14:16:33.391Z,7.50
2023-03-05T14:21:49.138Z,7.27
2023-03-05T14:27:03.370Z,7.77
2023-03-05T14:32:17.365Z,9.70
2023-03-05T14:37:38.795Z,8.40
2023-03-05T14:42:41.717Z,8.77
2023-03-05T14:47:45.245Z,12.57
2023-03-05T14:52:52.381Z,10.40
2023-03-05T14:58:10.829Z,13.20
2023-03-05T15:03:16.753Z,11.57
2023-03-05T15:08:27.014Z,7.47
2023-03-05T15:13:31.760Z,8.00
2023-03-05T15:18:34.800Z,7.20
2023-03-05T15:23:38.619Z,12.07
2023-03-05T15:28:43.255Z,10.93
2023-03-05T15:33:46.251Z,12.67
2023-03-05T15:38:49.287Z,10.93
2023-03-05T15:43:52.420Z,11.27
2023-03-05T15:48:55.568Z,9.33
2023-03-05T15:53:59.450Z,7.77
2023-03-05T15:59:06.096Z,8.33
2023-03-05T16:04:09.108Z,10.80
2023-03-05T16:09:13.981Z,10.53
2023-03-05T16:14:23.446Z,11.40
2023-03-05T16:19:27.809Z,9.63
2023-03-05T16:24:30.888Z,9.43
2023-03-05T16:29:34.992Z,7.53
2023-03-05T16:34:37.972Z,6.63
2023-03-05T16:39:41.007Z,6.83
2023-03-05T16:44:44.913Z,8.20
2023-03-05T16:49:47.899Z,7.40
2023-03-05T16:54:50.953Z,8.83
2023-03-05T16:59:56.762Z,9.10
2023-03-05T17:05:00.196Z,8.27
2023-03-05T17:10:03.281Z,5.03
2023-03-05T17:15:07.949Z,6.93
2023-03-05T17:20:13.166Z,5.60
2023-03-05T17:25:16.274Z,8.20
2023-03-05T17:30:19.978Z,7.60
2023-03-05T17:35:23.504Z,7.37
2023-03-05T17:40:26.410Z,4.70
2023-03-05T17:45:29.344Z,4.83
2023-03-05T17:50:32.373Z,5.10
2023-03-05T17:55:35.298Z,7.80
2023-03-05T18:00:38.338Z,9.77
2023-03-05T18:05:41.614Z,6.90
2023-03-05T18:10:44.794Z,9.47
2023-03-05T18:15:48.000Z,7.90
2023-03-05T18:20:51.148Z,9.53
2023-03-05T18:25:54.236Z,10.73
2023-03-05T18:30:57.269Z,10.70
2023-03-05T18:36:00.353Z,12.07
2023-03-05T18:41:06.346Z,16.37
2023-03-05T18:46:10.534Z,13.57
2023-03-05T18:51:17.876Z,10.70
2023-03-05T18:56:22.226Z,14.83
2023-03-05T19:01:25.586Z,15.63
2023-03-05T19:06:28.849Z,14.50
2023-03-05T19:11:31.906Z,8.90
2023-03-05T19:16:40.607Z,10.00
2023-03-05T19:21:50.860Z,8.43
2023-03-05T19:27:00.964Z,11.97
2023-03-05T19:32:07.708Z,8.33
2023-03-05T19:37:12.142Z,8.57
2023-03-05T19:42:15.401Z,9.17
2023-03-05T19:47:20.380Z,6.47
2023-03-05T19:52:23.398Z,6.97
2023-03-05T19:57:29.364Z,7.37
2023-03-05T20:02:32.836Z,6.77
2023-03-05T20:07:36.010Z,8.37
2023-03-05T20:12:39.495Z,5.00
2023-03-05T20:17:45.905Z,7.03
2023-03-05T20:22:49.021Z,4.77
2023-03-05T20:27:52.686Z,5.57
2023-03-05T20:32:55.827Z,5.20
2023-03-05T20:38:21.708Z,7.53
2023-03-05T20:43:35.415Z,7.37
2023-03-05T20:48:38.484Z,9.87
2023-03-05T20:53:41.533Z,10.20
2023-03-05T20:58:44.696Z,12.20
2023-03-05T21:03:48.007Z,9.60
2023-03-05T21:08:51.074Z,12.67
2023-03-05T21:13:54.143Z,8.40
2023-03-05T21:18:57.627Z,9.97
2023-03-05T21:24:00.706Z,10.93
2023-03-05T21:29:03.917Z,9.63
2023-03-05T21:34:07.771Z,8.70
2023-03-05T21:39:10.754Z,9.93
2023-03-05T21:44:17.644Z,8.67
2023-03-05T21:49:20.683Z,8.10
2023-03-05T21:54:24.194Z,10.60
2023-03-05T21:59:27.292Z,13.57
2023-03-05T22:04:30.273Z,13.57
2023-03-05T22:09:33.294Z,10.50
2023-03-05T22:14:36.661Z,8.77
2023-03-05T22:19:39.702Z,7.93
2023-03-05T22:24:42.744Z,11.00
2023-03-05T22:29:45.725Z,8.43
2023-03-05T22:34:48.689Z,6.70
2023-03-05T22:39:55.768Z,8.67
2023-03-05T22:44:59.515Z,10.83
2023-03-05T22:50:03.176Z,8.77
2023-03-05T22:55:07.030Z,10.70
2023-03-05T23:00:19.001Z,8.40
2023-03-05T23:05:22.081Z,9.60
2023-03-05T23:10:28.622Z,9.03
2023-03-05T23:15:38.282Z,7.73
2023-03-05T23:20:41.719Z,8.00
2023-03-05T23:25:44.733Z,8.60
2023-03-05T23:30:47.861Z,10.50
2023-03-05T23:35:55.945Z,8.50
2023-03-05T23:41:01.407Z,8.87
2023-03-05T23:46:12.047Z,8.20
2023-03-05T23:51:15.148Z,9.63
2023-03-05T23:56:18.120Z,8.40
